createdAt,value
2019-01-29T00:01:38.206Z,2.10
2019-01-29T00:05:00.353Z,2.10
2019-01-29T00:08:22.544Z,2.10
2019-01-29T00:11:45.225Z,2.00
2019-01-29T00:15:08.261Z,2.10
2019-01-29T00:18:30.865Z,2.10
2019-01-29T00:21:53.357Z,2.10
2019-01-29T00:25:16.378Z,2.10
2019-01-29T00:28:38.962Z,2.10
2019-01-29T00:32:01.213Z,2.10
2019-01-29T00:35:23.767Z,2.20
2019-01-29T00:38:46.198Z,2.10
2019-01-29T00:42:08.298Z,2.10
2019-01-29T00:45:30.704Z,2.10
2019-01-29T00:48:53.049Z,2.10
2019-01-29T00:52:15.246Z,2.10
2019-01-29T00:55:37.931Z,2.00
2019-01-29T00:59:00.388Z,2.10
2019-01-29T01:02:22.849Z,2.00
2019-01-29T01:05:45.248Z,2.10
2019-01-29T01:09:08.959Z,2.10
2019-01-29T01:12:31.718Z,2.00
2019-01-29T01:15:54.283Z,2.00
2019-01-29T01:19:16.814Z,2.10
2019-01-29T01:22:39.612Z,2.00
2019-01-29T01:26:01.808Z,2.00
2019-01-29T01:29:24.244Z,2.00
2019-01-29T01:32:47.215Z,1.90
2019-01-29T01:36:09.918Z,1.80
2019-01-29T01:39:32.324Z,1.70
2019-01-29T01:42:55.106Z,1.70
2019-01-29T01:46:17.271Z,1.50
2019-01-29T01:49:39.780Z,1.40
2019-01-29T01:53:02.133Z,1.40
2019-01-29T01:56:24.728Z,1.40
2019-01-29T01:59:46.965Z,1.40
2019-01-29T02:03:09.189Z,1.40
2019-01-29T02:06:31.760Z,1.40
2019-01-29T02:09:54.173Z,1.40
2019-01-29T02:13:16.588Z,1.40
2019-01-29T02:16:38.679Z,1.40
2019-01-29T02:20:01.393Z,1.40
2019-01-29T02:23:23.811Z,1.40
2019-01-29T02:26:46.536Z,1.40
2019-01-29T02:30:12.695Z,1.50
2019-01-29T02:33:35.149Z,1.50
2019-01-29T02:36:57.752Z,1.50
2019-01-29T02:40:26.048Z,1.50
2019-01-29T02:43:48.489Z,1.50
2019-01-29T02:47:11.035Z,1.50
2019-01-29T02:50:33.236Z,1.50
2019-01-29T02:53:55.365Z,1.40
2019-01-29T02:57:17.790Z,1.40
2019-01-29T03:00:40.211Z,1.40
2019-01-29T03:04:02.579Z,1.40
2019-01-29T03:07:25.024Z,1.30
2019-01-29T03:10:47.180Z,1.20
2019-01-29T03:14:09.379Z,1.10
2019-01-29T03:17:32.163Z,1.00
2019-01-29T03:20:54.732Z,0.90
2019-01-29T03:24:17.490Z,0.90
2019-01-29T03:27:40.248Z,0.90
2019-01-29T03:31:02.553Z,0.90
2019-01-29T03:34:25.125Z,0.80
2019-01-29T03:37:47.730Z,0.80
2019-01-29T03:41:09.965Z,0.70
2019-01-29T03:44:32.716Z,0.60
2019-01-29T03:47:55.180Z,0.60
2019-01-29T03:51:17.872Z,0.50
2019-01-29T03:54:40.703Z,0.50
2019-01-29T03:58:03.248Z,0.50
2019-01-29T04:01:25.843Z,0.50
2019-01-29T04:04:48.548Z,0.40
2019-01-29T04:08:11.229Z,0.40
2019-01-29T04:11:34.140Z,0.40
2019-01-29T04:14:57.076Z,0.40
2019-01-29T04:18:19.769Z,0.40
2019-01-29T04:21:42.532Z,0.40
2019-01-29T04:25:05.550Z,0.40
2019-01-29T04:28:28.378Z,0.40
2019-01-29T04:31:50.801Z,0.40
2019-01-29T04:35:13.413Z,0.40
2019-01-29T04:38:35.478Z,0.40
2019-01-29T04:41:58.149Z,0.30
2019-01-29T04:45:20.672Z,0.30
2019-01-29T04:48:43.534Z,0.30
2019-01-29T04:52:06.302Z,0.30
2019-01-29T04:55:28.749Z,0.20
2019-01-29T04:58:51.436Z,0.20
2019-01-29T05:02:14.179Z,0.20
2019-01-29T05:05:36.648Z,0.20
2019-01-29T05:08:59.370Z,0.10
2019-01-29T05:12:21.990Z,0.20
2019-01-29T05:15:44.672Z,0.20
2019-01-29T05:19:07.242Z,0.20
2019-01-29T05:22:29.718Z,0.10
2019-01-29T05:25:52.170Z,0.10
2019-01-29T05:29:14.588Z,0.10
2019-01-29T05:32:37.033Z,0.10
2019-01-29T05:36:00.308Z,0.10
2019-01-29T05:39:23.032Z,0.10
2019-01-29T05:42:45.874Z,0.00
2019-01-29T05:46:08.582Z,-0.10
2019-01-29T05:49:31.104Z,-0.20
2019-01-29T05:52:54.108Z,-0.20
2019-01-29T05:56:16.780Z,-0.30
2019-01-29T05:59:39.028Z,-0.40
2019-01-29T06:03:01.305Z,-0.40
2019-01-29T06:06:23.738Z,-0.50
2019-01-29T06:09:46.517Z,-0.50
2019-01-29T06:13:09.254Z,-0.60
2019-01-29T06:16:31.758Z,-0.70
2019-01-29T06:19:53.916Z,-0.80
2019-01-29T06:23:16.404Z,-0.80
2019-01-29T06:26:38.874Z,-0.80
2019-01-29T06:30:01.472Z,-0.80
2019-01-29T06:33:23.922Z,-0.90
2019-01-29T06:36:46.257Z,-0.90
2019-01-29T06:40:10.430Z,-0.90
2019-01-29T06:43:32.820Z,-0.90
2019-01-29T06:46:55.223Z,-0.90
2019-01-29T06:50:20.264Z,-0.90
2019-01-29T06:53:42.604Z,-0.90
2019-01-29T06:57:05.307Z,-0.90
2019-01-29T07:00:29.962Z,-1.00
2019-01-29T07:03:52.322Z,-1.00
2019-01-29T07:07:14.728Z,-1.00
2019-01-29T07:10:37.217Z,-0.90
2019-01-29T07:14:00.698Z,-0.90
2019-01-29T07:17:27.637Z,-0.70
2019-01-29T07:20:51.847Z,-0.60
2019-01-29T07:24:14.629Z,-0.40
2019-01-29T07:27:36.831Z,-0.20
2019-01-29T07:30:59.622Z,-0.20
2019-01-29T07:34:22.091Z,-0.20
2019-01-29T07:37:44.169Z,-0.20
2019-01-29T07:41:06.886Z,-0.10
2019-01-29T07:44:29.309Z,-0.10
2019-01-29T07:47:51.718Z,0.00
2019-01-29T07:51:14.509Z,0.00
2019-01-29T07:54:36.957Z,0.10
2019-01-29T07:57:59.326Z,0.10
2019-01-29T08:01:21.862Z,0.30
2019-01-29T08:04:44.322Z,0.40
2019-01-29T08:08:06.947Z,0.40
2019-01-29T08:11:29.066Z,0.50
2019-01-29T08:14:51.283Z,0.50
2019-01-29T08:18:13.573Z,0.60
2019-01-29T08:21:36.286Z,0.60
2019-01-29T08:25:01.806Z,0.70
2019-01-29T08:28:22.449Z,0.80
2019-01-29T08:31:45.211Z,0.80
2019-01-29T08:35:07.799Z,0.70
2019-01-29T08:38:30.183Z,0.80
2019-01-29T08:41:53.041Z,0.70
2019-01-29T08:45:15.957Z,0.70
2019-01-29T08:48:38.621Z,0.70
2019-01-29T08:52:00.849Z,0.70
2019-01-29T08:55:23.634Z,0.70
2019-01-29T08:58:46.204Z,0.80
2019-01-29T09:02:08.773Z,0.90
2019-01-29T09:05:30.950Z,1.00
2019-01-29T09:08:53.679Z,1.10
2019-01-29T09:12:15.772Z,1.10
2019-01-29T09:15:38.477Z,1.10
2019-01-29T09:19:01.166Z,1.20
2019-01-29T09:22:23.555Z,1.20
2019-01-29T09:25:45.967Z,1.20
2019-01-29T09:29:08.405Z,1.20
2019-01-29T09:32:31.160Z,1.20
2019-01-29T09:35:53.541Z,1.30
2019-01-29T09:39:16.344Z,1.30
2019-01-29T09:42:39.080Z,1.30
2019-01-29T09:46:01.996Z,1.40
2019-01-29T09:49:24.099Z,1.50
2019-01-29T09:52:46.793Z,1.50
2019-01-29T09:56:09.565Z,1.60
2019-01-29T09:59:31.992Z,1.60
2019-01-29T10:02:54.448Z,1.60
2019-01-29T10:06:16.930Z,1.60
2019-01-29T10:09:39.318Z,1.60
2019-01-29T10:13:01.566Z,1.70
2019-01-29T10:16:24.398Z,1.70
2019-01-29T10:19:47.396Z,1.70
2019-01-29T10:23:09.691Z,1.70
2019-01-29T10:26:32.306Z,1.70
2019-01-29T10:34:17.194Z,1.80
2019-01-29T10:37:39.711Z,1.80
2019-01-29T10:41:02.318Z,1.80
2019-01-29T10:44:24.796Z,1.90
2019-01-29T10:47:47.625Z,2.00
2019-01-29T10:51:10.087Z,2.10
2019-01-29T10:54:32.831Z,2.10
2019-01-29T10:57:55.252Z,2.20
2019-01-29T11:01:17.968Z,2.20
2019-01-29T11:04:40.734Z,2.30
2019-01-29T11:08:03.412Z,2.30
2019-01-29T11:11:26.263Z,2.30
2019-01-29T11:14:48.758Z,2.40
2019-01-29T11:18:13.579Z,2.40
2019-01-29T11:21:36.028Z,2.40
2019-01-29T11:24:58.737Z,2.40
2019-01-29T11:28:21.425Z,2.30
2019-01-29T11:31:44.374Z,2.20
2019-01-29T11:35:07.461Z,2.20
2019-01-29T11:38:29.895Z,2.30
2019-01-29T11:41:52.257Z,2.30
2019-01-29T11:45:18.346Z,2.30
2019-01-29T11:48:40.718Z,2.30
2019-01-29T11:52:03.377Z,2.40
2019-01-29T11:55:25.861Z,2.30
2019-01-29T11:58:48.436Z,2.40
2019-01-29T12:02:11.176Z,2.30
2019-01-29T12:05:33.936Z,2.40
2019-01-29T12:08:56.418Z,2.40
2019-01-29T12:12:19.144Z,2.50
2019-01-29T12:15:42.239Z,2.40
2019-01-29T12:19:05.085Z,2.40
2019-01-29T12:22:27.431Z,2.50
2019-01-29T12:25:49.939Z,2.60
2019-01-29T12:29:12.632Z,2.70
2019-01-29T12:32:35.283Z,2.70
2019-01-29T12:35:57.786Z,2.90
2019-01-29T12:39:20.336Z,3.00
2019-01-29T12:42:42.809Z,3.00
2019-01-29T12:46:06.277Z,3.10
2019-01-29T12:49:29.048Z,3.10
2019-01-29T12:52:58.327Z,3.30
2019-01-29T12:56:21.626Z,3.50
2019-01-29T12:59:44.492Z,3.40
2019-01-29T13:03:07.181Z,3.30
2019-01-29T13:06:29.693Z,3.30
2019-01-29T13:09:52.426Z,3.30
2019-01-29T13:13:15.529Z,3.30
2019-01-29T13:16:37.729Z,3.40
2019-01-29T13:20:00.287Z,3.30
2019-01-29T13:23:23.124Z,3.30
2019-01-29T13:26:45.856Z,3.30
2019-01-29T13:30:14.044Z,3.20
2019-01-29T13:33:36.669Z,3.20
2019-01-29T13:36:58.938Z,3.20
2019-01-29T13:40:21.261Z,3.10
2019-01-29T13:43:43.585Z,3.10
2019-01-29T13:47:06.601Z,3.10
2019-01-29T13:50:32.763Z,3.10
2019-01-29T13:53:55.544Z,3.10
2019-01-29T13:57:18.335Z,3.10
2019-01-29T14:00:41.158Z,3.10
2019-01-29T14:04:06.151Z,3.00
2019-01-29T14:07:27.925Z,3.00
2019-01-29T14:10:50.827Z,3.00
2019-01-29T14:14:13.662Z,2.90
2019-01-29T14:17:35.715Z,2.90
2019-01-29T14:20:59.010Z,3.00
2019-01-29T14:24:21.475Z,3.00
2019-01-29T14:27:44.145Z,3.00
2019-01-29T14:31:07.133Z,3.00
2019-01-29T14:34:29.930Z,3.00
2019-01-29T14:38:46.321Z,2.90
2019-01-29T14:42:08.471Z,2.90
2019-01-29T14:45:31.127Z,2.90
2019-01-29T14:48:53.687Z,3.00
2019-01-29T14:52:16.327Z,2.90
2019-01-29T14:55:38.582Z,2.90
2019-01-29T14:59:01.258Z,2.90
2019-01-29T15:02:23.677Z,2.90
2019-01-29T15:05:46.287Z,2.90
2019-01-29T15:09:11.470Z,2.80
2019-01-29T15:12:34.053Z,2.80
2019-01-29T15:16:01.917Z,2.90
2019-01-29T15:19:26.364Z,2.80
2019-01-29T15:22:49.195Z,2.80
2019-01-29T15:26:11.801Z,2.90
2019-01-29T15:29:34.565Z,2.80
2019-01-29T15:32:56.979Z,2.80
2019-01-29T15:36:19.524Z,2.80
2019-01-29T15:39:42.007Z,2.70
2019-01-29T15:43:04.817Z,2.70
2019-01-29T15:46:27.314Z,2.60
2019-01-29T15:49:49.837Z,2.60
2019-01-29T15:53:11.933Z,2.60
2019-01-29T15:56:34.571Z,2.60
2019-01-29T15:59:57.004Z,2.50
2019-01-29T16:03:19.709Z,2.40
2019-01-29T16:06:42.212Z,2.40
2019-01-29T16:10:07.018Z,2.40
2019-01-29T16:13:29.767Z,2.40
2019-01-29T16:16:52.209Z,2.30
2019-01-29T16:20:17.094Z,2.30
2019-01-29T16:23:39.465Z,2.40
2019-01-29T16:27:06.970Z,2.40
2019-01-29T16:30:27.605Z,2.40
2019-01-29T16:33:50.299Z,2.40
2019-01-29T16:37:13.194Z,2.40
2019-01-29T16:40:35.858Z,2.50
2019-01-29T16:43:58.536Z,2.50
2019-01-29T16:47:21.062Z,2.50
2019-01-29T16:50:43.503Z,2.40
2019-01-29T16:54:06.121Z,2.40
2019-01-29T16:57:31.881Z,2.40
2019-01-29T17:00:52.874Z,2.40
2019-01-29T17:04:15.693Z,2.40
2019-01-29T17:07:38.082Z,2.40
2019-01-29T17:11:00.231Z,2.40
2019-01-29T17:14:22.689Z,2.30
2019-01-29T17:17:45.223Z,2.30
2019-01-29T17:21:07.583Z,2.20
2019-01-29T17:24:30.350Z,2.30
2019-01-29T17:27:53.358Z,2.20
2019-01-29T17:31:16.516Z,2.30
2019-01-29T17:34:39.611Z,2.30
2019-01-29T17:38:01.985Z,2.30
2019-01-29T17:41:24.430Z,2.30
2019-01-29T17:44:46.830Z,2.20
2019-01-29T17:48:09.365Z,2.20
2019-01-29T17:51:31.556Z,2.20
2019-01-29T17:54:53.999Z,2.20
2019-01-29T17:58:16.622Z,2.20
2019-01-29T18:01:39.022Z,2.20
2019-01-29T18:05:01.682Z,2.20
2019-01-29T18:08:24.074Z,2.20
2019-01-29T18:11:46.398Z,2.20
2019-01-29T18:15:12.821Z,2.10
2019-01-29T18:18:34.994Z,2.10
2019-01-29T18:21:57.447Z,2.10
2019-01-29T18:25:20.054Z,2.10
2019-01-29T18:28:42.542Z,2.10
2019-01-29T18:32:05.394Z,2.10
2019-01-29T18:35:28.187Z,2.10
2019-01-29T18:38:50.838Z,2.10
2019-01-29T18:42:13.107Z,2.10
2019-01-29T18:45:35.708Z,2.10
2019-01-29T18:48:57.991Z,2.00
2019-01-29T18:52:20.262Z,2.10
2019-01-29T18:55:42.751Z,2.00
2019-01-29T18:59:04.954Z,2.00
2019-01-29T19:02:27.363Z,2.00
2019-01-29T19:05:50.252Z,2.00
2019-01-29T19:09:13.162Z,2.00
2019-01-29T19:12:35.724Z,2.00
2019-01-29T19:15:58.407Z,2.00
2019-01-29T19:19:20.781Z,2.00
2019-01-29T19:22:55.203Z,1.90
2019-01-29T19:26:17.879Z,1.90
2019-01-29T19:29:40.466Z,1.90
2019-01-29T19:33:03.120Z,1.80
2019-01-29T19:36:25.781Z,1.80
2019-01-29T19:39:48.557Z,1.80
2019-01-29T19:43:13.634Z,1.80
2019-01-29T19:46:35.233Z,1.80
2019-01-29T19:49:57.630Z,1.70
2019-01-29T19:53:20.342Z,1.70
2019-01-29T19:56:42.779Z,1.70
2019-01-29T20:00:08.374Z,1.70
2019-01-29T20:03:30.758Z,1.70
2019-01-29T20:06:52.904Z,1.70
2019-01-29T20:10:15.793Z,1.70
2019-01-29T20:13:39.369Z,1.70
2019-01-29T20:17:01.935Z,1.60
2019-01-29T20:20:27.249Z,1.60
2019-01-29T20:23:49.995Z,1.50
2019-01-29T20:27:12.414Z,1.50
2019-01-29T20:30:36.119Z,1.40
2019-01-29T20:33:58.853Z,1.30
2019-01-29T20:37:21.602Z,1.30
2019-01-29T20:40:44.124Z,1.30
2019-01-29T20:44:06.355Z,1.20
2019-01-29T20:47:28.787Z,1.20
2019-01-29T20:50:51.154Z,1.10
2019-01-29T20:54:13.307Z,1.10
2019-01-29T20:57:35.714Z,1.10
2019-01-29T21:00:58.099Z,1.00
2019-01-29T21:04:20.818Z,0.90
2019-01-29T21:07:43.554Z,0.80
2019-01-29T21:11:06.096Z,0.70
2019-01-29T21:14:28.769Z,0.70
2019-01-29T21:17:51.426Z,0.60
2019-01-29T21:21:13.977Z,0.60
2019-01-29T21:24:37.109Z,0.60
2019-01-29T21:27:59.690Z,0.50
2019-01-29T21:31:22.092Z,0.50
2019-01-29T21:34:44.865Z,0.50
2019-01-29T21:38:07.716Z,0.50
2019-01-29T21:41:30.409Z,0.50
2019-01-29T21:44:53.205Z,0.50
2019-01-29T21:48:16.310Z,0.50
2019-01-29T21:51:38.974Z,0.50
2019-01-29T21:55:01.298Z,0.40
2019-01-29T21:58:23.633Z,0.30
2019-01-29T22:01:46.065Z,0.30
2019-01-29T22:05:10.663Z,0.30
2019-01-29T22:08:32.811Z,0.20
2019-01-29T22:11:55.158Z,0.20
2019-01-29T22:15:17.916Z,0.10
2019-01-29T22:18:40.038Z,0.00
2019-01-29T22:22:02.737Z,-0.10
2019-01-29T22:25:25.016Z,-0.20
2019-01-29T22:28:47.689Z,-0.30
2019-01-29T22:32:10.356Z,-0.40
2019-01-29T22:35:32.750Z,-0.30
2019-01-29T22:38:54.855Z,-0.40
2019-01-29T22:42:17.325Z,-0.60
2019-01-29T22:45:39.992Z,-0.60
2019-01-29T22:49:02.161Z,-0.70
2019-01-29T22:52:24.306Z,-0.70
2019-01-29T22:55:46.938Z,-0.80
2019-01-29T22:59:09.493Z,-0.70
2019-01-29T23:02:32.097Z,-0.60
2019-01-29T23:05:59.514Z,-0.50
2019-01-29T23:09:21.925Z,-0.50
2019-01-29T23:12:44.565Z,-0.50
2019-01-29T23:16:07.300Z,-0.50
2019-01-29T23:19:29.677Z,-0.60
2019-01-29T23:22:52.134Z,-0.70
2019-01-29T23:26:20.644Z,-0.90
2019-01-29T23:29:43.852Z,-0.90
2019-01-29T23:33:06.704Z,-1.00
2019-01-29T23:36:29.184Z,-1.00
2019-01-29T23:39:52.078Z,-1.00
2019-01-29T23:43:19.406Z,-1.10
2019-01-29T23:46:41.837Z,-1.20
2019-01-29T23:50:05.030Z,-1.20
2019-01-29T23:53:27.430Z,-1.10
2019-01-29T23:56:50.101Z,-1.20
